Time;durP1;ratioP1;P1;durP2;ratioP2;P2;SDS_P1;SDS_P2;PMS_P1;PMS_P2;Temp;Humidity;BMP_temperature;BMP_pressure;BME280_temperature;BME280_humidity;BME280_pressure;Samples;Min_cycle;Max_cycle;Signal;HPM_P1;HPM_P2
2021/05/24 00:02:02;;;;;;;0.47;0.45;;;23.40;44.20;;;;;;6319018;28;20107;-66
2021/05/24 00:05:05;;;;;;;1.15;0.70;;;23.40;44.20;;;;;;6319311;28;20089;-66
2021/05/24 00:08:07;;;;;;;0.63;0.60;;;23.40;44.20;;;;;;6317208;28;20051;-66
2021/05/24 00:11:08;;;;;;;0.50;0.50;;;23.40;44.30;;;;;;6318301;28;20527;-66
2021/05/24 00:14:12;;;;;;;1.35;0.70;;;23.40;44.20;;;;;;6317101;28;20034;-66
2021/05/24 00:17:13;;;;;;;0.52;0.47;;;23.40;44.20;;;;;;6318453;28;20016;-65
2021/05/24 00:20:14;;;;;;;0.47;0.47;;;23.40;44.30;;;;;;6318237;28;20039;-65
2021/05/24 00:23:15;;;;;;;0.65;0.50;;;23.40;44.20;;;;;;6318296;28;20020;-66
2021/05/24 00:26:16;;;;;;;0.57;0.52;;;23.40;44.30;;;;;;6318717;28;20020;-66
2021/05/24 00:29:19;;;;;;;0.57;0.50;;;23.40;44.40;;;;;;6317946;28;20035;-65
2021/05/24 00:32:20;;;;;;;0.73;0.50;;;23.40;44.30;;;;;;6318121;28;20020;-66
2021/05/24 00:35:20;;;;;;;0.43;0.40;;;23.40;44.30;;;;;;6317447;28;20027;-66
2021/05/24 00:38:21;;;;;;;2.35;0.50;;;23.40;44.30;;;;;;6317995;28;20028;-65
2021/05/24 00:41:22;;;;;;;0.57;0.40;;;23.30;44.30;;;;;;6317884;28;20020;-66
2021/05/24 00:44:24;;;;;;;0.82;0.50;;;23.40;44.30;;;;;;6318059;28;20030;-66
2021/05/24 00:47:25;;;;;;;0.88;0.50;;;23.30;44.10;;;;;;6317791;28;20027;-66
2021/05/24 00:50:26;;;;;;;0.40;0.40;;;23.40;44.30;;;;;;6316944;28;20075;-65
2021/05/24 00:53:26;;;;;;;0.30;0.30;;;23.40;44.20;;;;;;6309746;28;20032;-65
2021/05/24 00:56:28;;;;;;;0.45;0.43;;;23.30;44.30;;;;;;6310378;28;20068;-65
2021/05/24 00:59:28;;;;;;;0.68;0.50;;;23.40;44.10;;;;;;6304255;28;20059;-65
2021/05/24 01:02:29;;;;;;;0.73;0.50;;;23.40;44.10;;;;;;6317260;28;20020;-66
2021/05/24 01:05:30;;;;;;;0.68;0.50;;;23.40;44.20;;;;;;6317151;28;20047;-65
2021/05/24 01:08:30;;;;;;;0.68;0.47;;;23.40;44.10;;;;;;6304643;28;20099;-65
2021/05/24 01:11:31;;;;;;;0.47;0.30;;;23.40;44.10;;;;;;6317249;28;20063;-66
2021/05/24 01:14:32;;;;;;;0.57;0.47;;;23.30;44.10;;;;;;6315874;28;20028;-66
2021/05/24 01:17:33;;;;;;;0.55;0.45;;;23.30;44.20;;;;;;6317357;28;20384;-66
2021/05/24 01:20:34;;;;;;;0.50;0.40;;;23.30;44.10;;;;;;6300902;28;20028;-65
2021/05/24 01:23:41;;;;;;;0.50;0.40;;;23.30;44.10;;;;;;6292189;28;20025;-65
2021/05/24 01:26:43;;;;;;;0.40;0.40;;;23.30;44.10;;;;;;6316695;28;20059;-66
2021/05/24 01:29:44;;;;;;;0.45;0.45;;;23.30;44.10;;;;;;6316354;28;20035;-66
2021/05/24 01:32:44;;;;;;;0.60;0.50;;;23.40;44.20;;;;;;6292070;28;20033;-66
2021/05/24 01:35:45;;;;;;;0.95;0.52;;;23.30;44.10;;;;;;6306405;28;20032;-65
2021/05/24 01:38:46;;;;;;;0.40;0.30;;;23.40;44.10;;;;;;6316816;28;20031;-66
2021/05/24 01:41:47;;;;;;;0.65;0.45;;;23.30;44.00;;;;;;6316498;28;20032;-66
2021/05/24 01:44:47;;;;;;;0.30;0.30;;;23.30;44.10;;;;;;6316631;28;20028;-66
2021/05/24 01:47:49;;;;;;;0.50;0.40;;;23.30;44.00;;;;;;6316513;28;20036;-65
2021/05/24 01:50:50;;;;;;;0.50;0.40;;;23.30;44.00;;;;;;6300996;28;20044;-66
2021/05/24 01:53:51;;;;;;;0.22;0.22;;;23.30;44.00;;;;;;6290031;28;20393;-66
2021/05/24 01:56:52;;;;;;;0.57;0.30;;;23.30;44.00;;;;;;6300670;28;20033;-65
2021/05/24 01:59:52;;;;;;;0.30;0.28;;;23.30;44.00;;;;;;6294164;28;20028;-66
2021/05/24 02:02:54;;;;;;;0.75;0.30;;;23.30;44.00;;;;;;6316060;28;20028;-65
2021/05/24 02:05:55;;;;;;;0.40;0.40;;;23.30;44.00;;;;;;6316308;28;20449;-66
2021/05/24 02:08:56;;;;;;;0.55;0.50;;;23.40;44.00;;;;;;6315777;28;20046;-66
2021/05/24 02:11:57;;;;;;;0.40;0.40;;;23.30;44.00;;;;;;6297741;28;20093;-66
2021/05/24 02:14:57;;;;;;;0.47;0.47;;;23.30;43.90;;;;;;6293887;28;20652;-66
2021/05/24 02:17:58;;;;;;;0.25;0.20;;;23.30;43.90;;;;;;6316022;28;20035;-66
2021/05/24 02:20:59;;;;;;;0.30;0.30;;;23.30;44.00;;;;;;6315823;28;20073;-66
2021/05/24 02:24:00;;;;;;;0.40;0.32;;;23.30;44.10;;;;;;6315997;28;20672;-65
2021/05/24 02:27:00;;;;;;;0.40;0.30;;;23.30;44.00;;;;;;6315962;28;20101;-66
2021/05/24 02:30:01;;;;;;;0.30;0.30;;;23.30;44.00;;;;;;6315380;28;20055;-66
2021/05/24 02:33:02;;;;;;;0.30;0.30;;;23.30;44.00;;;;;;6316056;28;20064;-65
2021/05/24 02:36:03;;;;;;;0.30;0.30;;;23.30;43.90;;;;;;6315511;28;20055;-66
2021/05/24 02:39:07;;;;;;;0.82;0.40;;;23.30;44.00;;;;;;6315207;28;20028;-66
2021/05/24 02:42:07;;;;;;;0.45;0.40;;;23.30;44.10;;;;;;6315564;28;20020;-65
2021/05/24 02:45:10;;;;;;;0.30;0.30;;;23.30;43.90;;;;;;6304636;28;20752;-66
2021/05/24 02:48:11;;;;;;;0.28;0.28;;;23.30;43.90;;;;;;6291032;28;20039;-65
2021/05/24 02:51:11;;;;;;;0.50;0.50;;;23.30;43.90;;;;;;6298157;28;20088;-65
2021/05/24 02:54:12;;;;;;;0.22;0.22;;;23.30;43.90;;;;;;6277085;28;20029;-66
2021/05/24 02:57:13;;;;;;;0.55;0.30;;;23.30;44.00;;;;;;6283917;28;20072;-66
2021/05/24 03:00:14;;;;;;;0.63;0.50;;;23.30;43.90;;;;;;6304444;28;20028;-66
2021/05/24 03:03:15;;;;;;;0.20;0.20;;;23.30;44.20;;;;;;6315164;28;20027;-66
2021/05/24 03:06:16;;;;;;;0.40;0.32;;;23.20;44.80;;;;;;6315416;28;20036;-66
2021/05/24 03:09:16;;;;;;;0.28;0.22;;;23.10;45.10;;;;;;6314869;28;20081;-66
2021/05/24 03:12:17;;;;;;;0.32;0.32;;;23.10;45.30;;;;;;6315595;28;20020;-65
2021/05/24 03:15:18;;;;;;;0.30;0.30;;;23.10;45.70;;;;;;6315714;28;20032;-65
2021/05/24 03:18:19;;;;;;;0.20;0.20;;;23.00;45.80;;;;;;6315405;28;20493;-66
2021/05/24 03:21:20;;;;;;;0.30;0.25;;;23.00;45.90;;;;;;6315366;28;20019;-66
2021/05/24 03:24:21;;;;;;;0.63;0.50;;;23.00;46.20;;;;;;6318549;28;20024;-65
2021/05/24 03:27:21;;;;;;;0.22;0.22;;;22.90;46.20;;;;;;6318496;28;20798;-65
2021/05/24 03:30:22;;;;;;;0.43;0.30;;;22.90;46.40;;;;;;6318200;28;20032;-66
2021/05/24 03:33:23;;;;;;;0.40;0.30;;;22.90;46.50;;;;;;6319669;28;20028;-66
2021/05/24 03:36:24;;;;;;;0.22;0.22;;;22.90;46.50;;;;;;6319355;28;20066;-64
2021/05/24 03:39:25;;;;;;;0.50;0.40;;;22.90;46.60;;;;;;6319222;28;20621;-66
2021/05/24 03:42:25;;;;;;;0.40;0.22;;;22.90;46.70;;;;;;6319250;28;20060;-65
2021/05/24 03:45:27;;;;;;;0.30;0.30;;;22.90;46.80;;;;;;6319681;28;20024;-66
2021/05/24 03:48:28;;;;;;;0.40;0.30;;;22.90;46.80;;;;;;6318151;28;20024;-66
2021/05/24 03:51:28;;;;;;;0.30;0.30;;;22.90;46.90;;;;;;6318632;28;20109;-66
2021/05/24 03:54:29;;;;;;;0.45;0.35;;;22.90;47.00;;;;;;6276561;28;20078;-66
2021/05/24 03:57:29;;;;;;;0.20;0.20;;;22.90;47.00;;;;;;6292867;28;20048;-65
2021/05/24 04:00:36;;;;;;;0.43;0.40;;;22.90;47.00;;;;;;6319064;28;20020;-66
2021/05/24 04:03:37;;;;;;;0.30;0.30;;;22.90;47.10;;;;;;6319056;28;20020;-66
2021/05/24 04:06:40;;;;;;;0.30;0.30;;;22.80;47.00;;;;;;6319089;28;20392;-66
2021/05/24 04:09:42;;;;;;;0.32;0.32;;;22.80;47.10;;;;;;6317084;28;20602;-66
2021/05/24 04:12:43;;;;;;;0.28;0.28;;;22.80;47.10;;;;;;6318630;28;20038;-66
2021/05/24 04:15:47;;;;;;;0.20;0.20;;;22.80;47.10;;;;;;6319491;28;20099;-65
2021/05/24 04:18:50;;;;;;;0.30;0.30;;;22.80;47.20;;;;;;6304170;28;20029;-65
2021/05/24 04:21:51;;;;;;;0.30;0.30;;;22.80;47.20;;;;;;6294370;28;20017;-65
2021/05/24 04:24:51;;;;;;;0.38;0.32;;;22.80;47.30;;;;;;6293041;28;20025;-65
2021/05/24 04:27:52;;;;;;;0.13;0.13;;;22.80;47.30;;;;;;6299140;28;20027;-65
2021/05/24 04:30:53;;;;;;;0.30;0.30;;;22.80;47.30;;;;;;6318948;28;20024;-65
2021/05/24 04:33:53;;;;;;;0.45;0.40;;;22.80;47.40;;;;;;6305855;28;20029;-65
2021/05/24 04:36:54;;;;;;;0.30;0.30;;;22.80;47.40;;;;;;6293729;28;20029;-65
2021/05/24 04:39:55;;;;;;;0.38;0.30;;;22.80;47.40;;;;;;6293395;28;20074;-66
2021/05/24 04:42:56;;;;;;;0.38;0.30;;;22.80;47.50;;;;;;6293506;28;20025;-65
2021/05/24 04:45:56;;;;;;;0.40;0.30;;;22.80;47.50;;;;;;6293730;28;20541;-65
2021/05/24 04:48:57;;;;;;;0.30;0.30;;;22.80;47.50;;;;;;6304444;28;20028;-65
2021/05/24 04:52:01;;;;;;;0.40;0.30;;;22.80;47.50;;;;;;6318048;28;20059;-65
2021/05/24 04:55:05;;;;;;;0.30;0.30;;;22.80;47.50;;;;;;6313252;28;20028;-65
2021/05/24 04:58:06;;;;;;;0.20;0.20;;;22.80;47.50;;;;;;6317185;28;20032;-65
2021/05/24 05:01:07;;;;;;;0.20;0.20;;;22.80;47.50;;;;;;6311007;28;20084;-65
2021/05/24 05:04:08;;;;;;;0.30;0.30;;;22.80;47.60;;;;;;6278614;28;20391;-65
2021/05/24 05:07:08;;;;;;;0.35;0.30;;;22.80;47.60;;;;;;6293327;28;20052;-65
2021/05/24 05:10:10;;;;;;;0.30;0.30;;;22.80;47.60;;;;;;6292775;28;20032;-66
2021/05/24 05:13:11;;;;;;;0.32;0.20;;;22.80;47.70;;;;;;6293216;28;20055;-65
2021/05/24 05:16:11;;;;;;;0.40;0.40;;;22.80;47.70;;;;;;6292783;28;20662;-65
2021/05/24 05:19:12;;;;;;;0.45;0.45;;;22.80;47.70;;;;;;6292720;28;20064;-65
2021/05/24 05:22:13;;;;;;;1.20;0.30;;;22.80;47.70;;;;;;6293072;28;20029;-65
2021/05/24 05:25:14;;;;;;;0.22;0.22;;;22.80;47.70;;;;;;6307899;28;20039;-65
2021/05/24 05:28:15;;;;;;;0.28;0.28;;;22.70;48.10;;;;;;6318007;28;20027;-65
2021/05/24 05:31:16;;;;;;;0.75;0.47;;;22.80;47.80;;;;;;6293909;28;20020;-65
2021/05/24 05:34:17;;;;;;;0.30;0.30;;;22.70;47.70;;;;;;6292539;28;20105;-65
2021/05/24 05:37:20;;;;;;;0.30;0.30;;;22.80;47.80;;;;;;6291705;28;20067;-65
2021/05/24 05:40:21;;;;;;;0.70;0.30;;;22.70;47.70;;;;;;6292470;28;20023;-65
2021/05/24 05:43:22;;;;;;;0.30;0.20;;;22.70;47.70;;;;;;6292777;28;20024;-66
2021/05/24 05:46:23;;;;;;;0.30;0.30;;;22.70;47.80;;;;;;6313879;28;20528;-65
2021/05/24 05:49:24;;;;;;;0.20;0.20;;;22.70;47.80;;;;;;6312588;28;20059;-65
2021/05/24 05:52:24;;;;;;;0.35;0.32;;;22.70;47.80;;;;;;6287803;28;20067;-65
2021/05/24 05:55:25;;;;;;;0.32;0.20;;;22.70;47.80;;;;;;6267270;28;20029;-65
2021/05/24 05:58:26;;;;;;;0.30;0.30;;;22.70;47.80;;;;;;6289606;28;20028;-65
2021/05/24 06:01:26;;;;;;;0.35;0.30;;;22.70;47.80;;;;;;6293440;28;20108;-65
2021/05/24 06:04:27;;;;;;;0.30;0.30;;;22.70;47.80;;;;;;6304973;28;20071;-65
2021/05/24 06:07:27;;;;;;;0.25;0.25;;;22.70;47.80;;;;;;6295063;28;20481;-65
2021/05/24 06:10:28;;;;;;;0.90;0.50;;;22.70;47.90;;;;;;6294515;28;20024;-65
2021/05/24 06:13:28;;;;;;;0.50;0.30;;;22.70;47.90;;;;;;6294661;28;20060;-65
2021/05/24 06:16:29;;;;;;;0.22;0.22;;;22.70;47.90;;;;;;6310482;28;20024;-65
2021/05/24 06:19:30;;;;;;;0.30;0.30;;;22.70;47.90;;;;;;6319579;28;20028;-65
2021/05/24 06:22:30;;;;;;;0.47;0.30;;;22.70;47.90;;;;;;6273164;28;20120;-65
2021/05/24 06:25:31;;;;;;;0.30;0.30;;;22.70;47.90;;;;;;6275543;28;20021;-65
2021/05/24 06:28:31;;;;;;;0.20;0.20;;;22.70;47.90;;;;;;6278844;28;20150;-64
2021/05/24 06:31:32;;;;;;;0.20;0.20;;;22.70;48.00;;;;;;6300640;28;20024;-64
2021/05/24 06:34:32;;;;;;;0.30;0.30;;;22.70;48.00;;;;;;6296234;28;20041;-64
2021/05/24 06:37:33;;;;;;;0.20;0.20;;;22.70;48.00;;;;;;6280289;28;20034;-65
2021/05/24 06:40:34;;;;;;;0.20;0.20;;;22.70;48.10;;;;;;6301390;28;20143;-65
2021/05/24 06:43:34;;;;;;;3.33;0.30;;;22.70;48.10;;;;;;6307778;28;20024;-65
2021/05/24 06:46:35;;;;;;;1246.50;598.40;;;22.70;48.10;;;;;;6317198;28;20032;-65
2021/05/24 06:49:36;;;;;;;509.50;196.75;;;22.70;48.20;;;;;;6305089;28;20021;-64
2021/05/24 06:52:36;;;;;;;41.78;6.28;;;22.70;48.20;;;;;;6299797;28;20052;-65
2021/05/24 06:55:37;;;;;;;6.03;1.05;;;22.70;48.30;;;;;;6289049;28;20043;-65
2021/05/24 06:58:38;;;;;;;8.80;1.33;;;22.70;48.30;;;;;;6314077;28;20086;-65
2021/05/24 07:01:39;;;;;;;2.22;0.73;;;22.70;48.30;;;;;;6305161;28;20016;-64
2021/05/24 07:04:39;;;;;;;1.75;0.70;;;22.70;48.20;;;;;;6288604;28;20037;-64
2021/05/24 07:07:40;;;;;;;1.00;0.60;;;22.70;48.20;;;;;;6293751;28;20404;-65
2021/05/24 07:10:40;;;;;;;5.68;0.60;;;22.70;48.30;;;;;;6318240;28;20027;-65
2021/05/24 07:13:41;;;;;;;1.73;0.45;;;22.70;48.30;;;;;;6308007;28;20035;-65
2021/05/24 07:16:41;;;;;;;0.55;0.40;;;22.70;48.30;;;;;;6303638;28;20039;-65
2021/05/24 07:19:42;;;;;;;2.83;1.05;;;22.70;48.30;;;;;;6308000;28;20044;-65
2021/05/24 07:22:43;;;;;;;3.10;0.40;;;22.70;48.30;;;;;;6308207;28;20136;-65
2021/05/24 07:25:43;;;;;;;0.68;0.50;;;22.60;48.20;;;;;;6297249;28;20039;-64
2021/05/24 07:28:44;;;;;;;0.82;0.30;;;22.70;48.30;;;;;;6308794;28;20027;-64
2021/05/24 07:31:44;;;;;;;0.30;0.30;;;22.70;48.30;;;;;;6297063;28;20033;-65
2021/05/24 07:34:45;;;;;;;0.77;0.28;;;22.70;49.10;;;;;;6296074;28;20032;-64
2021/05/24 07:37:45;;;;;;;0.65;0.40;;;22.70;48.40;;;;;;6307495;28;20400;-64
2021/05/24 07:40:46;;;;;;;0.65;0.38;;;22.70;48.40;;;;;;6295631;28;20411;-67
2021/05/24 07:43:46;;;;;;;1.48;0.35;;;22.70;48.50;;;;;;6311742;28;20017;-65
2021/05/24 07:46:48;;;;;;;0.60;0.30;;;22.70;48.50;;;;;;6320740;28;20024;-65
2021/05/24 07:49:48;;;;;;;1.55;0.75;;;22.70;48.50;;;;;;6317073;28;20025;-65
2021/05/24 07:52:49;;;;;;;0.85;0.30;;;22.60;48.50;;;;;;6294306;28;20032;-65
2021/05/24 07:55:49;;;;;;;0.30;0.22;;;22.70;48.60;;;;;;6294352;28;20028;-65
2021/05/24 07:58:50;;;;;;;1.75;0.38;;;22.70;48.80;;;;;;6292423;28;20028;-65
2021/05/24 08:01:50;;;;;;;0.60;0.40;;;22.70;48.70;;;;;;6307842;28;20025;-65
2021/05/24 08:04:51;;;;;;;0.28;0.25;;;22.70;48.70;;;;;;6305179;28;20024;-65
2021/05/24 08:07:52;;;;;;;1.23;0.35;;;22.70;48.60;;;;;;6294403;28;20077;-65
2021/05/24 08:10:52;;;;;;;3.78;0.40;;;22.70;49.10;;;;;;6308491;28;20082;-65
2021/05/24 08:13:54;;;;;;;4.72;0.50;;;22.70;49.00;;;;;;6293723;28;20086;-65
2021/05/24 08:16:55;;;;;;;1.27;0.30;;;22.80;49.00;;;;;;6310920;28;20020;-65
2021/05/24 08:19:55;;;;;;;1.38;0.40;;;22.80;48.80;;;;;;6307985;28;20028;-65
2021/05/24 08:22:56;;;;;;;0.82;0.30;;;22.80;48.90;;;;;;6302483;28;20033;-66
2021/05/24 08:25:57;;;;;;;0.35;0.30;;;22.80;49.10;;;;;;6295742;28;20056;-65
2021/05/24 08:28:57;;;;;;;5.18;0.32;;;22.80;49.10;;;;;;6295843;28;20473;-65
2021/05/24 08:31:58;;;;;;;0.35;0.30;;;22.80;49.00;;;;;;6296074;28;20028;-65
2021/05/24 08:34:58;;;;;;;0.68;0.45;;;22.80;49.70;;;;;;6320095;28;20117;-65
2021/05/24 08:37:59;;;;;;;0.52;0.30;;;22.80;49.10;;;;;;6320966;28;20113;-66
2021/05/24 08:41:07;;;;;;;0.95;0.30;;;22.80;49.00;;;;;;6320833;28;20063;-65
2021/05/24 08:44:08;;;;;;;1.50;0.25;;;22.80;49.00;;;;;;6305560;28;20478;-66
2021/05/24 08:47:10;;;;;;;0.45;0.20;;;22.80;49.00;;;;;;6296846;28;20028;-65
2021/05/24 08:50:12;;;;;;;1.05;0.40;;;22.80;49.00;;;;;;6298154;28;20472;-65
2021/05/24 08:53:13;;;;;;;1.38;0.30;;;22.80;48.90;;;;;;6304932;28;20384;-65
2021/05/24 08:56:14;;;;;;;0.70;0.40;;;22.80;48.90;;;;;;6318781;28;20046;-67
2021/05/24 08:59:14;;;;;;;1.20;0.40;;;22.80;49.00;;;;;;6294309;28;20037;-65
2021/05/24 09:02:15;;;;;;;0.68;0.30;;;22.80;48.90;;;;;;6295573;28;20028;-65
2021/05/24 09:05:18;;;;;;;0.73;0.40;;;22.80;48.90;;;;;;6317552;28;20016;-65
2021/05/24 09:08:19;;;;;;;0.40;0.35;;;22.80;48.80;;;;;;6320147;28;20038;-65
2021/05/24 09:11:26;;;;;;;0.90;0.30;;;22.80;48.80;;;;;;6321619;28;20024;-65
2021/05/24 09:14:27;;;;;;;1.05;0.40;;;22.80;48.80;;;;;;6320098;28;20472;-65
2021/05/24 09:18:00;;;;;;;0.75;0.50;;;22.80;48.80;;;;;;6320620;28;20024;-65
2021/05/24 09:21:02;;;;;;;0.80;0.35;;;22.80;48.80;;;;;;6267869;28;20033;-65
2021/05/24 09:24:24;;;;;;;0.63;0.30;;;22.70;48.70;;;;;;6285861;28;20027;-66
2021/05/24 09:27:35;;;;;;;0.90;0.50;;;22.70;49.40;;;;;;6320327;28;20024;-66
2021/05/24 09:30:41;;;;;;;0.47;0.25;;;22.70;48.70;;;;;;6300368;28;20436;-66
2021/05/24 09:33:57;;;;;;;0.45;0.30;;;22.70;48.80;;;;;;6295770;28;20020;-66
2021/05/24 09:36:59;;;;;;;0.57;0.30;;;22.70;48.80;;;;;;6295872;28;20078;-66
2021/05/24 09:40:00;;;;;;;0.65;0.20;;;22.70;48.80;;;;;;6309100;28;20389;-66
2021/05/24 09:43:07;;;;;;;0.15;0.15;;;22.70;48.80;;;;;;6320424;28;20488;-66
2021/05/24 09:46:18;;;;;;;0.50;0.30;;;22.70;48.80;;;;;;6297993;28;20016;-66
2021/05/24 09:49:24;;;;;;;0.93;0.28;;;22.70;48.80;;;;;;6288646;28;20147;-66
2021/05/24 09:52:34;;;;;;;0.45;0.30;;;22.60;48.80;;;;;;6274746;28;20037;-65
2021/05/24 09:55:36;;;;;;;0.22;0.20;;;22.60;48.80;;;;;;6311430;28;20039;-66
2021/05/24 09:58:38;;;;;;;0.70;0.32;;;22.60;48.80;;;;;;6320402;28;20036;-66
2021/05/24 10:01:42;;;;;;;0.20;0.20;;;22.60;48.70;;;;;;6295533;28;20419;-66
2021/05/24 10:04:44;;;;;;;0.30;0.25;;;22.60;48.80;;;;;;6295187;28;20020;-66
2021/05/24 10:07:45;;;;;;;0.20;0.20;;;22.60;48.80;;;;;;6295430;28;20060;-66
2021/05/24 10:10:46;;;;;;;0.82;0.20;;;22.60;48.80;;;;;;6308416;28;20028;-66
2021/05/24 10:13:48;;;;;;;0.35;0.22;;;22.60;48.80;;;;;;6318979;28;20405;-66
2021/05/24 10:16:50;;;;;;;0.35;0.20;;;22.60;48.80;;;;;;6298850;28;20023;-66
2021/05/24 10:19:51;;;;;;;0.50;0.40;;;22.60;48.70;;;;;;6294988;28;20032;-66
2021/05/24 10:22:52;;;;;;;0.85;0.52;;;22.60;48.80;;;;;;6295246;28;20064;-66
2021/05/24 10:25:56;;;;;;;0.57;0.30;;;22.60;48.80;;;;;;6307458;28;20047;-66
2021/05/24 10:29:00;;;;;;;0.55;0.30;;;22.60;48.80;;;;;;6319676;28;20024;-66
2021/05/24 10:32:01;;;;;;;0.20;0.20;;;22.60;48.80;;;;;;6321033;28;20540;-66
2021/05/24 10:35:28;;;;;;;0.57;0.40;;;22.60;48.80;;;;;;6318390;28;20029;-67
2021/05/24 10:38:33;;;;;;;0.50;0.40;;;22.60;48.80;;;;;;6274960;28;20044;-66
2021/05/24 10:41:55;;;;;;;0.30;0.20;;;22.60;48.80;;;;;;6307320;28;20031;-66
2021/05/24 10:44:55;;;;;;;0.75;0.30;;;22.60;48.80;;;;;;6323881;28;20035;-70
2021/05/24 10:48:00;;;;;;;0.40;0.30;;;22.60;48.80;;;;;;6295610;28;20052;-67
2021/05/24 10:51:10;;;;;;;0.10;0.10;;;22.60;48.80;;;;;;6299370;28;20126;-66
2021/05/24 10:54:11;;;;;;;1.30;0.25;;;22.60;48.80;;;;;;6302264;28;20036;-65
2021/05/24 10:57:14;;;;;;;0.10;0.10;;;22.60;48.80;;;;;;6298431;28;20037;-66
2021/05/24 11:00:15;;;;;;;1.58;0.30;;;22.60;48.80;;;;;;6307352;28;20020;-65
2021/05/24 11:03:16;;;;;;;0.57;0.32;;;22.60;49.70;;;;;;6314061;28;20032;-66
2021/05/24 11:06:17;;;;;;;0.20;0.20;;;22.60;49.00;;;;;;6305713;28;20017;-66
2021/05/24 11:09:28;;;;;;;0.45;0.30;;;22.60;49.20;;;;;;6297819;28;20025;-66
2021/05/24 11:12:30;;;;;;;0.20;0.20;;;22.60;49.00;;;;;;6315904;28;20056;-66
2021/05/24 11:15:36;;;;;;;1.00;0.20;;;22.60;49.00;;;;;;6305914;28;20516;-66
2021/05/24 11:18:40;;;;;;;0.52;0.30;;;22.60;49.00;;;;;;6298314;28;20025;-66
2021/05/24 11:21:56;;;;;;;0.10;0.10;;;22.60;49.00;;;;;;6303878;28;20020;-66
2021/05/24 11:25:49;;;;;;;0.63;0.20;;;22.60;49.00;;;;;;6300023;28;20107;-66
2021/05/24 11:28:43;;;;;;;1.27;0.20;;;22.60;49.00;;;;;;6280943;28;20473;-66
2021/05/24 11:31:49;;;;;;;0.30;0.20;;;22.60;49.00;;;;;;6305933;28;20038;-66
2021/05/24 11:34:51;;;;;;;0.10;0.10;;;22.60;49.00;;;;;;6306723;28;20021;-66
2021/05/24 11:37:52;;;;;;;1.17;0.30;;;22.60;49.00;;;;;;6301277;28;20500;-67
2021/05/24 11:41:13;;;;;;;0.30;0.20;;;22.60;49.00;;;;;;6297198;28;20052;-66
2021/05/24 11:44:15;;;;;;;0.30;0.13;;;22.60;49.00;;;;;;6278838;28;20017;-65
2021/05/24 11:47:19;;;;;;;0.40;0.40;;;22.60;49.00;;;;;;6297753;28;20024;-66
2021/05/24 11:50:20;;;;;;;0.40;0.20;;;22.60;49.10;;;;;;6298202;28;20037;-64
2021/05/24 11:53:22;;;;;;;0.22;0.20;;;22.60;49.10;;;;;;6297464;28;20032;-65
2021/05/24 11:56:23;;;;;;;0.10;0.10;;;22.60;49.10;;;;;;6305496;28;20027;-65
2021/05/24 11:59:26;;;;;;;3.67;0.30;;;22.60;49.30;;;;;;6319737;28;20036;-65
2021/05/24 12:02:27;;;;;;;0.20;0.17;;;22.60;49.30;;;;;;6306335;28;20384;-64
2021/05/24 12:05:29;;;;;;;0.28;0.20;;;22.60;49.20;;;;;;6321470;28;20024;-65
2021/05/24 12:08:30;;;;;;;0.30;0.25;;;22.60;49.20;;;;;;6321109;28;20043;-64
2021/05/24 12:11:33;;;;;;;0.38;0.25;;;22.60;49.20;;;;;;6296799;28;20031;-68
2021/05/24 12:14:35;;;;;;;1.48;0.20;;;22.60;49.20;;;;;;6318150;28;20027;-65
2021/05/24 12:17:36;;;;;;;2.78;0.22;;;22.70;49.20;;;;;;6320855;28;20028;-66
2021/05/24 12:20:36;;;;;;;1.63;0.40;;;22.70;49.50;;;;;;6313623;28;20032;-65
2021/05/24 12:23:49;;;;;;;0.82;0.20;;;22.80;49.40;;;;;;6295366;28;20043;-65
2021/05/24 12:26:55;;;;;;;2.42;0.20;;;22.80;49.50;;;;;;6296468;28;20450;-65
2021/05/24 12:30:16;;;;;;;3.47;0.30;;;22.80;49.50;;;;;;6319416;28;20080;-65
2021/05/24 12:33:18;;;;;;;1.05;0.20;;;22.80;49.40;;;;;;6297690;28;20024;-65
2021/05/24 12:36:21;;;;;;;2.22;0.40;;;22.70;49.40;;;;;;6294842;28;20449;-65
2021/05/24 12:39:24;;;;;;;1.65;0.30;;;22.70;49.50;;;;;;6315888;28;20477;-64
2021/05/24 12:42:24;;;;;;;0.13;0.10;;;22.80;49.60;;;;;;6298381;28;20349;-65
2021/05/24 12:45:27;;;;;;;0.25;0.20;;;22.80;49.50;;;;;;6294691;28;20509;-65
2021/05/24 12:48:30;;;;;;;0.32;0.20;;;22.70;49.30;;;;;;6306068;28;20143;-65
2021/05/24 12:51:32;;;;;;;0.63;0.20;;;22.80;49.50;;;;;;6304247;28;20049;-64
2021/05/24 12:54:48;;;;;;;0.68;0.30;;;22.70;49.40;;;;;;6291729;28;20485;-64
2021/05/24 12:57:48;;;;;;;0.38;0.20;;;22.70;49.40;;;;;;6285932;28;20032;-65
2021/05/24 13:00:54;;;;;;;1.30;0.20;;;22.70;49.40;;;;;;6284770;28;20385;-66
2021/05/24 13:04:00;;;;;;;1.23;0.55;;;22.70;49.40;;;;;;6293729;28;20131;-65
2021/05/24 13:07:11;;;;;;;6.07;1.85;;;22.70;49.50;;;;;;6284827;28;20534;-65
2021/05/24 13:10:13;;;;;;;8.32;2.92;;;22.70;49.60;;;;;;6308359;28;20091;-65
2021/05/24 13:13:20;;;;;;;15.10;4.75;;;22.70;49.50;;;;;;6317303;28;20024;-65
2021/05/24 13:16:37;;;;;;;18.52;4.72;;;22.70;49.60;;;;;;6304194;28;20084;-66
2021/05/24 13:26:53;;;;;;;17.58;6.45;;;22.60;49.50;;;;;;6306135;28;20024;-66
2021/05/24 13:30:03;;;;;;;16.80;6.20;;;22.60;49.50;;;;;;6294818;28;20020;-66
2021/05/24 13:33:36;;;;;;;24.33;8.32;;;22.60;49.50;;;;;;6304711;28;20032;-66
2021/05/24 13:36:39;;;;;;;27.88;9.02;;;22.60;49.50;;;;;;6295352;28;20063;-66
2021/05/24 13:39:40;;;;;;;23.35;9.57;;;22.60;49.60;;;;;;6290477;28;20388;-66
2021/05/24 13:42:41;;;;;;;25.15;9.10;;;22.60;49.60;;;;;;6300699;28;20032;-66
2021/05/24 13:45:42;;;;;;;35.72;10.88;;;22.60;49.60;;;;;;6306427;28;20046;-66
2021/05/24 13:48:43;;;;;;;34.05;10.65;;;22.60;49.60;;;;;;6292143;28;20130;-64
2021/05/24 13:51:46;;;;;;;34.55;11.63;;;22.60;49.60;;;;;;6289468;28;20047;-64
2021/05/24 13:54:47;;;;;;;29.92;11.35;;;22.60;49.60;;;;;;6293112;28;20388;-64
2021/05/24 13:57:48;;;;;;;46.13;16.58;;;22.60;49.60;;;;;;6305725;28;20028;-64
2021/05/24 14:00:48;;;;;;;55.08;18.30;;;22.60;50.20;;;;;;6309955;28;20423;-66
2021/05/24 14:03:49;;;;;;;41.33;15.38;;;22.60;50.20;;;;;;6301790;28;20028;-64
2021/05/24 14:06:51;;;;;;;38.67;14.70;;;22.60;49.90;;;;;;6304362;28;20020;-65
2021/05/24 14:09:51;;;;;;;39.20;13.88;;;22.60;49.90;;;;;;6298138;28;20092;-65
2021/05/24 14:12:52;;;;;;;36.30;13.80;;;22.60;49.90;;;;;;6314227;28;20475;-65
2021/05/24 14:15:53;;;;;;;38.50;14.40;;;22.60;50.00;;;;;;6291618;28;20017;-65
2021/05/24 14:18:53;;;;;;;37.03;14.60;;;22.60;49.90;;;;;;6290847;28;20024;-66
2021/05/24 14:21:54;;;;;;;34.97;13.27;;;22.60;49.80;;;;;;6313707;28;20027;-64
2021/05/24 14:24:54;;;;;;;33.40;13.90;;;22.60;49.80;;;;;;6296277;28;20028;-65
2021/05/24 14:27:55;;;;;;;31.88;13.57;;;22.60;49.80;;;;;;6309145;28;20035;-63
2021/05/24 14:30:59;;;;;;;37.92;13.90;;;22.60;49.80;;;;;;6303985;28;20073;-65
2021/05/24 14:34:00;;;;;;;36.13;13.50;;;22.60;49.80;;;;;;6307857;28;20432;-64
2021/05/24 14:37:00;;;;;;;38.95;13.77;;;22.60;49.80;;;;;;6301906;28;20035;-64
2021/05/24 14:40:01;;;;;;;34.40;14.07;;;22.60;49.80;;;;;;6298238;28;20021;-65
2021/05/24 14:43:02;;;;;;;38.40;14.63;;;22.60;49.80;;;;;;6310515;28;20509;-65
2021/05/24 14:46:03;;;;;;;35.67;14.73;;;22.60;49.90;;;;;;6293168;28;20028;-66
2021/05/24 14:49:04;;;;;;;31.33;12.50;;;22.60;51.00;;;;;;6309365;28;20033;-65
2021/05/24 14:52:08;;;;;;;37.72;14.15;;;22.60;50.90;;;;;;6304362;28;20580;-65
2021/05/24 14:55:09;;;;;;;36.28;13.50;;;22.60;50.30;;;;;;6302069;28;20043;-65
2021/05/24 14:58:10;;;;;;;34.05;13.70;;;22.60;50.20;;;;;;6278256;28;20021;-65
2021/05/24 15:01:11;;;;;;;31.65;13.68;;;22.60;50.20;;;;;;6300600;28;20048;-68
2021/05/24 15:04:12;;;;;;;32.65;12.02;;;22.60;50.20;;;;;;6295230;28;20033;-65
2021/05/24 15:07:13;;;;;;;28.55;11.85;;;22.60;50.10;;;;;;6294467;28;20028;-66
2021/05/24 15:10:14;;;;;;;35.97;12.85;;;22.60;50.10;;;;;;6294664;28;20539;-64
2021/05/24 15:13:15;;;;;;;29.95;11.55;;;22.60;50.10;;;;;;6308057;28;20099;-66
2021/05/24 15:16:16;;;;;;;32.70;12.48;;;22.60;50.10;;;;;;6319834;28;20047;-66
2021/05/24 15:19:17;;;;;;;29.45;11.88;;;22.60;50.10;;;;;;6300946;28;20029;-66
2021/05/24 15:22:18;;;;;;;29.85;11.98;;;22.60;50.10;;;;;;6302759;28;20031;-65
2021/05/24 15:25:20;;;;;;;30.45;11.57;;;22.60;50.10;;;;;;6322750;28;20020;-65
2021/05/24 15:28:22;;;;;;;31.70;12.77;;;22.60;50.10;;;;;;6311439;28;20067;-66
2021/05/24 15:31:27;;;;;;;27.02;10.68;;;22.60;50.40;;;;;;6302710;28;20088;-66
2021/05/24 15:34:28;;;;;;;31.90;10.93;;;22.60;50.90;;;;;;6321132;28;20330;-67
2021/05/24 15:37:28;;;;;;;24.88;10.15;;;22.60;50.40;;;;;;6296925;28;20407;-66
2021/05/24 15:40:29;;;;;;;22.65;9.88;;;22.60;50.50;;;;;;6296095;28;20027;-67
2021/05/24 15:43:30;;;;;;;23.95;10.00;;;22.60;50.50;;;;;;6303104;28;20056;-67
2021/05/24 15:46:31;;;;;;;25.75;10.02;;;22.60;50.50;;;;;;6297035;28;20480;-67
2021/05/24 15:49:32;;;;;;;23.58;10.43;;;22.60;50.40;;;;;;6297578;28;20039;-67
2021/05/24 15:52:33;;;;;;;24.13;9.45;;;22.60;50.40;;;;;;6303900;28;20052;-67